Observation data for Knox City on 01/12/2018      Previous  Date  Next       Current Mesonet Observations  Soil Data  Daily Summary Page  Observations in Plain Language
KKN1 120600Z 36004KT M02/M10 A3033 RMK A01 T10181098  RH  055%=      5-min Rain = 0
KKN1 120605Z 36005KT M02/M10 A3033 RMK A01 T10161097  RH  055%=      5-min Rain = 0
KKN1 120610Z 36006KT M02/M10 A3033 RMK A01 T10191097  RH  056%=      5-min Rain = 0
KKN1 120615Z 36005KT M02/M10 A3032 RMK A01 T10231097  RH  058%=      5-min Rain = 0
KKN1 120620Z 02005KT M02/M10 A3032 RMK A01 T10231096  RH  058%=      5-min Rain = 0
KKN1 120625Z 03005KT M03/M10 A3032 RMK A01 T10271097  RH  060%=      5-min Rain = 0
KKN1 120630Z 03005KT M03/M10 A3032 RMK A01 T10261096  RH  060%=      5-min Rain = 0
KKN1 120635Z 03006KT M03/M10 A3032 RMK A01 T10271096  RH  059%=      5-min Rain = 0
KKN1 120640Z 02007KT M02/M10 A3032 RMK A01 T10231096  RH  058%=      5-min Rain = 0
KKN1 120645Z 02007KT M02/M10 A3032 RMK A01 T10221096  RH  058%=      5-min Rain = 0
KKN1 120650Z 02007KT M02/M10 A3032 RMK A01 T10241097  RH  058%=      5-min Rain = 0
KKN1 120655Z 02006KT M03/M10 A3032 RMK A01 T10251098  RH  058%=      5-min Rain = 0
KKN1 120700Z 01007KT M03/M10 A3032 RMK A01 T10261098  RH  058%=      5-min Rain = 0
KKN1 120705Z 02007KT M03/M10 A3032 RMK A01 T10271098  RH  059%=      5-min Rain = 0
KKN1 120710Z 03008KT M03/M10 A3032 RMK A01 T10311098  RH  060%=      5-min Rain = 0
KKN1 120715Z 04010KT M03/M10 A3031 RMK A01 T10281098  RH  059%=      5-min Rain = 0
KKN1 120720Z 03010KT M03/M10 A3031 RMK A01 T10261100  RH  058%=      5-min Rain = 0
KKN1 120725Z 03010KT M03/M10 A3031 RMK A01 T10251102  RH  056%=      5-min Rain = 0
KKN1 120730Z 03010KT M03/M10 A3031 RMK A01 T10251103  RH  056%=      5-min Rain = 0
KKN1 120735Z 03008KT M03/M10 A3031 RMK A01 T10261103  RH  056%=      5-min Rain = 0
KKN1 120740Z 01006KT M03/M10 A3031 RMK A01 T10281104  RH  057%=      5-min Rain = 0
KKN1 120745Z 01005KT M03/M11 A3032 RMK A01 T10311105  RH  057%=      5-min Rain = 0
KKN1 120750Z 00005KT M03/M11 A3032 RMK A01 T10341106  RH  058%=      5-min Rain = 0
KKN1 120755Z 36006KT M04/M11 A3033 RMK A01 T10411108  RH  060%=      5-min Rain = 0
KKN1 120800Z 35004KT M05/M11 A3033 RMK A01 T10451108  RH  062%=      5-min Rain = 0
KKN1 120805Z 00002KT M05/M11 A3033 RMK A01 T10461108  RH  063%=      5-min Rain = 0
KKN1 120810Z 23001KT M05/M11 A3034 RMK A01 T10491107  RH  065%=      5-min Rain = 0
KKN1 120815Z 22001KT M05/M10 A3034 RMK A01 T10541104  RH  069%=      5-min Rain = 0
KKN1 120820Z 29000KT M05/M10 A3034 RMK A01 T10501101  RH  069%=      5-min Rain = 0
KKN1 120825Z 30002KT M05/M10 A3034 RMK A01 T10461102  RH  065%=      5-min Rain = 0
KKN1 120830Z 30001KT M04/M10 A3034 RMK A01 T10411104  RH  062%=      5-min Rain = 0
KKN1 120835Z 29000KT M04/M11 A3034 RMK A01 T10391105  RH  061%=      5-min Rain = 0
KKN1 120840Z 34001KT M04/M11 A3034 RMK A01 T10391107  RH  060%=      5-min Rain = 0
KKN1 120845Z 00003KT M04/M11 A3034 RMK A01 T10411109  RH  060%=      5-min Rain = 0
KKN1 120850Z 36005KT M05/M11 A3033 RMK A01 T10471112  RH  061%=      5-min Rain = 0
KKN1 120855Z 00006KT M05/M11 A3033 RMK A01 T10521111  RH  064%=      5-min Rain = 0
KKN1 120900Z 02005KT M05/M11 A3033 RMK A01 T10471109  RH  063%=      5-min Rain = 0
KKN1 120905Z 01004KT M05/M11 A3033 RMK A01 T10451110  RH  061%=      5-min Rain = 0
KKN1 120910Z 36005KT M05/M11 A3033 RMK A01 T10461112  RH  061%=      5-min Rain = 0
KKN1 120915Z 34004KT M05/M11 A3033 RMK A01 T10501113  RH  062%=      5-min Rain = 0
KKN1 120920Z 34003KT M05/M11 A3033 RMK A01 T10511111  RH  063%=      5-min Rain = 0
KKN1 120925Z 35003KT M05/M11 A3033 RMK A01 T10471111  RH  062%=      5-min Rain = 0
KKN1 120930Z 00003KT M05/M11 A3033 RMK A01 T10451112  RH  061%=      5-min Rain = 0
KKN1 120935Z 34005KT M05/M11 A3033 RMK A01 T10491114  RH  061%=      5-min Rain = 0
KKN1 120940Z 33005KT M06/M12 A3033 RMK A01 T10581115  RH  065%=      5-min Rain = 0
KKN1 120945Z 34005KT M06/M11 A3033 RMK A01 T10611113  RH  068%=      5-min Rain = 0
KKN1 120950Z 34004KT M06/M11 A3033 RMK A01 T10601113  RH  067%=      5-min Rain = 0
KKN1 120955Z 35004KT M06/M11 A3032 RMK A01 T10571112  RH  066%=      5-min Rain = 0
KKN1 121000Z 02005KT M05/M11 A3031 RMK A01 T10541113  RH  064%=      5-min Rain = 0
KKN1 121005Z 02006KT M05/M11 A3031 RMK A01 T10541113  RH  064%=      5-min Rain = 0
KKN1 121010Z 03005KT M06/M11 A3031 RMK A01 T10561112  RH  065%=      5-min Rain = 0
KKN1 121015Z 04004KT M05/M11 A3031 RMK A01 T10541112  RH  065%=      5-min Rain = 0
KKN1 121020Z 03003KT M05/M11 A303 RMK A01 T10531113  RH  064%=      5-min Rain = 0
KKN1 121025Z 02003KT M05/M11 A303 RMK A01 T10531114  RH  063%=      5-min Rain = 0
KKN1 121030Z 02002KT M06/M12 A3031 RMK A01 T10551115  RH  063%=      5-min Rain = 0
KKN1 121035Z 02000KT M06/M11 A3031 RMK A01 T10551114  RH  064%=      5-min Rain = 0
KKN1 121040Z 02000KT M06/M11 A3031 RMK A01 T10551114  RH  064%=      5-min Rain = 0
KKN1 121045Z 02000KT M06/M12 A3031 RMK A01 T10591115  RH  065%=      5-min Rain = 0
KKN1 121050Z 30003KT M06/M11 A3031 RMK A01 T10601114  RH  067%=      5-min Rain = 0
KKN1 121055Z 31003KT M07/M12 A3031 RMK A01 T10681118  RH  068%=      5-min Rain = 0
KKN1 121100Z 32003KT M08/M12 A3032 RMK A01 T10761120  RH  072%=      5-min Rain = 0
KKN1 121105Z 31004KT M08/M12 A3033 RMK A01 T10801119  RH  075%=      5-min Rain = 0
KKN1 121110Z 33006KT M08/M12 A3033 RMK A01 T10791115  RH  077%=      5-min Rain = 0
KKN1 121115Z 34005KT M08/M11 A3032 RMK A01 T10781114  RH  076%=      5-min Rain = 0
KKN1 121120Z 34004KT M08/M11 A3032 RMK A01 T10761113  RH  076%=      5-min Rain = 0
KKN1 121125Z 35005KT M07/M11 A3032 RMK A01 T10731113  RH  074%=      5-min Rain = 0
KKN1 121130Z 34005KT M07/M12 A3033 RMK A01 T10731116  RH  072%=      5-min Rain = 0
KKN1 121135Z 35005KT M08/M12 A3033 RMK A01 T10751116  RH  074%=      5-min Rain = 0
KKN1 121140Z 35005KT M07/M12 A3033 RMK A01 T10731115  RH  073%=      5-min Rain = 0
KKN1 121145Z 33003KT M07/M12 A3033 RMK A01 T10721115  RH  072%=      5-min Rain = 0
KKN1 121150Z 31003KT M07/M12 A3034 RMK A01 T10721115  RH  072%=      5-min Rain = 0
KKN1 121155Z 30003KT M07/M12 A3034 RMK A01 T10721117  RH  071%=      5-min Rain = 0
KKN1 121200Z 27004KT M07/M12 A3034 RMK A01 T10731116  RH  072%=      5-min Rain = 0
KKN1 121205Z 28004KT M07/M12 A3034 RMK A01 T10711115  RH  072%=      5-min Rain = 0
KKN1 121210Z 28003KT M07/M11 A3034 RMK A01 T10691114  RH  072%=      5-min Rain = 0
KKN1 121215Z 29003KT M07/M12 A3034 RMK A01 T10711116  RH  071%=      5-min Rain = 0
KKN1 121220Z 30004KT M07/M11 A3034 RMK A01 T10701114  RH  072%=      5-min Rain = 0
KKN1 121225Z 31003KT M07/M11 A3034 RMK A01 T10681114  RH  071%=      5-min Rain = 0
KKN1 121230Z 32004KT M07/M12 A3034 RMK A01 T10671115  RH  069%=      5-min Rain = 0
KKN1 121235Z 32005KT M07/M12 A3035 RMK A01 T10721119  RH  070%=      5-min Rain = 0
KKN1 121240Z 33004KT M08/M12 A3035 RMK A01 T10771120  RH  073%=      5-min Rain = 0
KKN1 121245Z 33003KT M08/M12 A3035 RMK A01 T10781119  RH  074%=      5-min Rain = 0
KKN1 121250Z 33003KT M08/M12 A3034 RMK A01 T10751115  RH  074%=      5-min Rain = 0
KKN1 121255Z 34005KT M07/M12 A3034 RMK A01 T10721116  RH  072%=      5-min Rain = 0
KKN1 121300Z 34005KT M08/M12 A3034 RMK A01 T10751119  RH  072%=      5-min Rain = 0
KKN1 121305Z 33005KT M08/M12 A3034 RMK A01 T10781118  RH  074%=      5-min Rain = 0
KKN1 121310Z 35004KT M08/M12 A3034 RMK A01 T10771117  RH  074%=      5-min Rain = 0
KKN1 121315Z 00003KT M08/M12 A3035 RMK A01 T10771118  RH  074%=      5-min Rain = 0
KKN1 121320Z 01003KT M08/M12 A3034 RMK A01 T10761117  RH  074%=      5-min Rain = 0
KKN1 121325Z 00003KT M08/M12 A3034 RMK A01 T10761118  RH  073%=      5-min Rain = 0
KKN1 121330Z 35003KT M08/M12 A3035 RMK A01 T10751118  RH  072%=      5-min Rain = 0
KKN1 121335Z 33003KT M08/M12 A3035 RMK A01 T10801122  RH  072%=      5-min Rain = 0
KKN1 121340Z 32002KT M08/M12 A3035 RMK A01 T10841124  RH  074%=      5-min Rain = 0
KKN1 121345Z 32002KT M08/M12 A3035 RMK A01 T10841121  RH  076%=      5-min Rain = 0
KKN1 121350Z 32002KT M08/M12 A3035 RMK A01 T10821119  RH  076%=      5-min Rain = 0
KKN1 121355Z 32001KT M08/M12 A3035 RMK A01 T10821120  RH  075%=      5-min Rain = 0
KKN1 121400Z 32001KT M08/M12 A3035 RMK A01 T10791116  RH  075%=      5-min Rain = 0
KKN1 121405Z 30003KT M08/M12 A3035 RMK A01 T10751115  RH  074%=      5-min Rain = 0
KKN1 121410Z 30002KT M07/M11 A3035 RMK A01 T10721114  RH  072%=      5-min Rain = 0
KKN1 121415Z 29001KT M07/M11 A3036 RMK A01 T10681113  RH  072%=      5-min Rain = 0
KKN1 121420Z 29000KT M07/M11 A3036 RMK A01 T10671113  RH  071%=      5-min Rain = 0
KKN1 121425Z 29000KT M06/M11 A3036 RMK A01 T10631108  RH  071%=      5-min Rain = 0
KKN1 121430Z 27002KT M06/M11 A3037 RMK A01 T10611109  RH  070%=      5-min Rain = 0
KKN1 121435Z 27001KT M06/M11 A3037 RMK A01 T10591109  RH  069%=      5-min Rain = 0
KKN1 121440Z 27001KT M06/M11 A3037 RMK A01 T10581106  RH  070%=      5-min Rain = 0
KKN1 121445Z 28001KT M05/M10 A3038 RMK A01 T10541103  RH  070%=      5-min Rain = 0
KKN1 121450Z 28002KT M05/M10 A3038 RMK A01 T10511103  RH  068%=      5-min Rain = 0
KKN1 121455Z 28001KT M05/M10 A3039 RMK A01 T10491102  RH  067%=      5-min Rain = 0
KKN1 121500Z 29001KT M05/M11 A3039 RMK A01 T10461105  RH  064%=      5-min Rain = 0
KKN1 121505Z 30001KT M04/M11 A3039 RMK A01 T10441106  RH  063%=      5-min Rain = 0
KKN1 121510Z 30001KT M04/M10 A3039 RMK A01 T10411104  RH  062%=      5-min Rain = 0
KKN1 121515Z 35002KT M04/M11 A3039 RMK A01 T10381107  RH  059%=      5-min Rain = 0
KKN1 121520Z 01002KT M04/M11 A3039 RMK A01 T10361111  RH  057%=      5-min Rain = 0
KKN1 121525Z 03003KT M04/M11 A3038 RMK A01 T10351112  RH  056%=      5-min Rain = 0
KKN1 121530Z 02004KT M03/M11 A3038 RMK A01 T10331111  RH  055%=      5-min Rain = 0
KKN1 121535Z 01006KT M03/M11 A3038 RMK A01 T10311113  RH  054%=      5-min Rain = 0
KKN1 121540Z 02005KT M03/M11 A3038 RMK A01 T10291111  RH  054%=      5-min Rain = 0
KKN1 121545Z 03005KT M03/M11 A3038 RMK A01 T10271114  RH  052%=      5-min Rain = 0
KKN1 121550Z 03006KT M02/M12 A3038 RMK A01 T10241118  RH  049%=      5-min Rain = 0
KKN1 121555Z 03007KT M02/M12 A3038 RMK A01 T10231122  RH  047%=      5-min Rain = 0
KKN1 121600Z 03006KT M02/M12 A3038 RMK A01 T10221122  RH  047%=      5-min Rain = 0
KKN1 121605Z 03007KT M02/M12 A3038 RMK A01 T10191120  RH  046%=      5-min Rain = 0
KKN1 121610Z 02005KT M02/M12 A3037 RMK A01 T10181124  RH  045%=      5-min Rain = 0
KKN1 121615Z 03006KT M02/M12 A3037 RMK A01 T10181123  RH  045%=      5-min Rain = 0
KKN1 121620Z 04006KT M02/M12 A3037 RMK A01 T10161121  RH  045%=      5-min Rain = 0
KKN1 121625Z 03004KT M02/M12 A3037 RMK A01 T10151121  RH  045%=      5-min Rain = 0
KKN1 121630Z 02004KT M01/M12 A3038 RMK A01 T10131122  RH  044%=      5-min Rain = 0
KKN1 121635Z 04005KT M01/M12 A3038 RMK A01 T10101121  RH  043%=      5-min Rain = 0
KKN1 121640Z 02004KT M01/M12 A3038 RMK A01 T10091122  RH  043%=      5-min Rain = 0
KKN1 121645Z 05004KT M01/M12 A3038 RMK A01 T10071120  RH  042%=      5-min Rain = 0
KKN1 121650Z 04004KT M01/M12 A3038 RMK A01 T10051121  RH  042%=      5-min Rain = 0
KKN1 121655Z 02003G8KT M00/M12 A3037 RMK A01 T10011121  RH  040%=      5-min Rain = 0
KKN1 121700Z 35003KT 00/M12 A3037 RMK A01 T00021123  RH  039%=      5-min Rain = 0
KKN1 121705Z 35004KT 00/M13 A3037 RMK A01 T00031126  RH  038%=      5-min Rain = 0
KKN1 121710Z 01004KT 00/M13 A3037 RMK A01 T00021129  RH  037%=      5-min Rain = 0
KKN1 121715Z 03002KT 00/M13 A3036 RMK A01 T00031129  RH  037%=      5-min Rain = 0
KKN1 121720Z 03004KT 01/M13 A3036 RMK A01 T00051131  RH  036%=      5-min Rain = 0
KKN1 121725Z 01004KT 01/M13 A3036 RMK A01 T00051134  RH  035%=      5-min Rain = 0
KKN1 121730Z 01003KT 01/M14 A3036 RMK A01 T00071135  RH  034%=      5-min Rain = 0
KKN1 121735Z 06004KT 01/M13 A3036 RMK A01 T00061132  RH  035%=      5-min Rain = 0
KKN1 121740Z 04004KT 01/M13 A3036 RMK A01 T00071133  RH  035%=      5-min Rain = 0
KKN1 121745Z 03003KT 01/M14 A3035 RMK A01 T00091135  RH  034%=      5-min Rain = 0
KKN1 121750Z 05003KT 01/M13 A3035 RMK A01 T00111133  RH  034%=      5-min Rain = 0
KKN1 121755Z 08004KT 02/M13 A3034 RMK A01 T00151133  RH  033%=      5-min Rain = 0
KKN1 121800Z 04003KT 01/M13 A3034 RMK A01 T00141133  RH  033%=      5-min Rain = 0
KKN1 121805Z 09004KT 01/M13 A3033 RMK A01 T00131133  RH  033%=      5-min Rain = 0
KKN1 121810Z 05004KT 02/M13 A3033 RMK A01 T00151132  RH  033%=      5-min Rain = 0
KKN1 121815Z 03003KT 02/M13 A3033 RMK A01 T00161132  RH  033%=      5-min Rain = 0
KKN1 121820Z 07004KT 02/M13 A3032 RMK A01 T00171132  RH  033%=      5-min Rain = 0
KKN1 121825Z 08002KT 02/M13 A3031 RMK A01 T00201130  RH  032%=      5-min Rain = 0
KKN1 121830Z 10004KT 02/M13 A3031 RMK A01 T00221131  RH  032%=      5-min Rain = 0
KKN1 121835Z 10002KT 02/M13 A303 RMK A01 T00191133  RH  032%=      5-min Rain = 0
KKN1 121840Z 11002KT 02/M13 A303 RMK A01 T00201131  RH  032%=      5-min Rain = 0
KKN1 121845Z 09001KT 02/M13 A3029 RMK A01 T00241130  RH  032%=      5-min Rain = 0
KKN1 121850Z 14001KT 03/M13 A3029 RMK A01 T00281129  RH  031%=      5-min Rain = 0
KKN1 121855Z 06002KT 03/M13 A3029 RMK A01 T00321128  RH  030%=      5-min Rain = 0
KKN1 121900Z 03004KT 03/M13 A3029 RMK A01 T00291130  RH  030%=      5-min Rain = 0
KKN1 121905Z 08003KT 03/M13 A3029 RMK A01 T00281130  RH  031%=      5-min Rain = 0
KKN1 121910Z 12001KT 03/M13 A3028 RMK A01 T00311129  RH  030%=      5-min Rain = 0
KKN1 121915Z 11002KT 04/M13 A3028 RMK A01 T00361128  RH  029%=      5-min Rain = 0
KKN1 121920Z 04003KT 04/M13 A3027 RMK A01 T00351128  RH  030%=      5-min Rain = 0
KKN1 121925Z 09004KT 04/M13 A3027 RMK A01 T00381127  RH  029%=      5-min Rain = 0
KKN1 121930Z 07004KT 04/M13 A3027 RMK A01 T00371128  RH  029%=      5-min Rain = 0
KKN1 121935Z 06003KT 04/M13 A3027 RMK A01 T00381127  RH  029%=      5-min Rain = 0
KKN1 121940Z 07005KT 04/M13 A3027 RMK A01 T00371128  RH  029%=      5-min Rain = 0
KKN1 121945Z 07005KT 04/M13 A3026 RMK A01 T00401126  RH  029%=      5-min Rain = 0
KKN1 121950Z 04003KT 04/M13 A3025 RMK A01 T00401127  RH  029%=      5-min Rain = 0
KKN1 121955Z 08002KT 04/M12 A3025 RMK A01 T00441124  RH  029%=      5-min Rain = 0
KKN1 122000Z 09004KT 05/M13 A3025 RMK A01 T00451125  RH  028%=      5-min Rain = 0
KKN1 122005Z 10005KT 05/M12 A3025 RMK A01 T00461124  RH  028%=      5-min Rain = 0
KKN1 122010Z 11004KT 05/M12 A3025 RMK A01 T00461124  RH  028%=      5-min Rain = 0
KKN1 122015Z 09003G8KT 05/M12 A3025 RMK A01 T00481122  RH  028%=      5-min Rain = 0
KKN1 122020Z 10005KT 05/M12 A3025 RMK A01 T00471122  RH  029%=      5-min Rain = 0
KKN1 122025Z 10005KT 05/M12 A3025 RMK A01 T00481119  RH  029%=      5-min Rain = 0
KKN1 122030Z 09003KT 05/M12 A3025 RMK A01 T00501121  RH  028%=      5-min Rain = 0
KKN1 122035Z 12004KT 05/M12 A3025 RMK A01 T00511119  RH  028%=      5-min Rain = 0
KKN1 122040Z 10004KT 05/M12 A3025 RMK A01 T00531120  RH  028%=      5-min Rain = 0
KKN1 122045Z 07004KT 05/M12 A3024 RMK A01 T00531119  RH  028%=      5-min Rain = 0
KKN1 122050Z 10005G11KT 05/M12 A3024 RMK A01 T00521120  RH  028%=      5-min Rain = 0
KKN1 122055Z 11004KT 05/M12 A3024 RMK A01 T00541121  RH  028%=      5-min Rain = 0
KKN1 122100Z 12005KT 05/M12 A3024 RMK A01 T00521122  RH  028%=      5-min Rain = 0
KKN1 122105Z 10005KT 05/M12 A3024 RMK A01 T00511122  RH  028%=      5-min Rain = 0
KKN1 122110Z 10004G9KT 05/M12 A3024 RMK A01 T00531121  RH  028%=      5-min Rain = 0
KKN1 122115Z 11005KT 05/M12 A3024 RMK A01 T00521122  RH  028%=      5-min Rain = 0
KKN1 122120Z 08005KT 05/M12 A3024 RMK A01 T00541121  RH  027%=      5-min Rain = 0
KKN1 122125Z 08004KT 06/M12 A3024 RMK A01 T00581118  RH  027%=      5-min Rain = 0
KKN1 122130Z 12005KT 06/M12 A3024 RMK A01 T00601120  RH  027%=      5-min Rain = 0
KKN1 122135Z 10005KT 06/M12 A3024 RMK A01 T00581121  RH  027%=      5-min Rain = 0
KKN1 122140Z 11005KT 06/M12 A3024 RMK A01 T00571120  RH  027%=      5-min Rain = 0
KKN1 122145Z 10005KT 06/M12 A3024 RMK A01 T00561121  RH  027%=      5-min Rain = 0
KKN1 122150Z 09005KT 06/M12 A3024 RMK A01 T00561120  RH  027%=      5-min Rain = 0
KKN1 122155Z 12005KT 06/M12 A3024 RMK A01 T00591119  RH  027%=      5-min Rain = 0
KKN1 122200Z 10006KT 06/M12 A3024 RMK A01 T00581118  RH  027%=      5-min Rain = 0
KKN1 122205Z 11006KT 06/M12 A3024 RMK A01 T00591119  RH  027%=      5-min Rain = 0
KKN1 122210Z 13006KT 06/M12 A3024 RMK A01 T00601119  RH  027%=      5-min Rain = 0
KKN1 122215Z 13003KT 06/M12 A3024 RMK A01 T00601121  RH  026%=      5-min Rain = 0
KKN1 122220Z 12005KT 06/M12 A3025 RMK A01 T00601119  RH  027%=      5-min Rain = 0
KKN1 122225Z 12005KT 06/M12 A3025 RMK A01 T00591119  RH  027%=      5-min Rain = 0
KKN1 122230Z 10005KT 06/M12 A3025 RMK A01 T00581119  RH  027%=      5-min Rain = 0
KKN1 122235Z 11006KT 06/M12 A3025 RMK A01 T00581118  RH  027%=      5-min Rain = 0
KKN1 122240Z 10005KT 06/M12 A3025 RMK A01 T00571117  RH  028%=      5-min Rain = 0
KKN1 122245Z 10005KT 06/M12 A3025 RMK A01 T00571116  RH  028%=      5-min Rain = 0
KKN1 122250Z 09006KT 06/M12 A3025 RMK A01 T00561117  RH  028%=      5-min Rain = 0
KKN1 122255Z 08005KT 06/M12 A3025 RMK A01 T00561117  RH  028%=      5-min Rain = 0
KKN1 122300Z 09006KT 06/M12 A3025 RMK A01 T00561116  RH  028%=      5-min Rain = 0
KKN1 122305Z 09007KT 06/M12 A3025 RMK A01 T00561115  RH  028%=      5-min Rain = 0
KKN1 122310Z 09007KT 06/M12 A3025 RMK A01 T00561115  RH  028%=      5-min Rain = 0
KKN1 122315Z 08007KT 06/M11 A3025 RMK A01 T00551114  RH  029%=      5-min Rain = 0
KKN1 122320Z 08006KT 05/M11 A3025 RMK A01 T00541114  RH  029%=      5-min Rain = 0
KKN1 122325Z 06006KT 05/M11 A3025 RMK A01 T00541111  RH  030%=      5-min Rain = 0
KKN1 122330Z 06008KT 05/M11 A3026 RMK A01 T00521112  RH  030%=      5-min Rain = 0
KKN1 122335Z 07007KT 05/M11 A3026 RMK A01 T00511111  RH  031%=      5-min Rain = 0
KKN1 122340Z 06007KT 05/M11 A3027 RMK A01 T00481112  RH  031%=      5-min Rain = 0
KKN1 122345Z 06007KT 05/M11 A3027 RMK A01 T00461113  RH  031%=      5-min Rain = 0
KKN1 122350Z 05007KT 04/M11 A3027 RMK A01 T00431113  RH  032%=      5-min Rain = 0
KKN1 122355Z 05008KT 04/M11 A3027 RMK A01 T00401112  RH  032%=      5-min Rain = 0
KKN1 130000Z 05007KT 04/M11 A3027 RMK A01 T00361112  RH  033%=      5-min Rain = 0
KKN1 130005Z 05007KT 03/M11 A3027 RMK A01 T00321112  RH  034%=      5-min Rain = 0
KKN1 130010Z 05007KT 03/M11 A3028 RMK A01 T00301112  RH  035%=      5-min Rain = 0
KKN1 130015Z 05007KT 03/M11 A3028 RMK A01 T00291112  RH  035%=      5-min Rain = 0
KKN1 130020Z 05007KT 03/M11 A3028 RMK A01 T00251111  RH  036%=      5-min Rain = 0
KKN1 130025Z 05007KT 02/M11 A3028 RMK A01 T00231111  RH  037%=      5-min Rain = 0
KKN1 130030Z 05007KT 02/M11 A3029 RMK A01 T00221112  RH  037%=      5-min Rain = 0
KKN1 130035Z 05007KT 02/M11 A3029 RMK A01 T00201112  RH  038%=      5-min Rain = 0
KKN1 130040Z 05007KT 02/M11 A3029 RMK A01 T00181112  RH  038%=      5-min Rain = 0
KKN1 130045Z 05007KT 02/M11 A3029 RMK A01 T00151111  RH  039%=      5-min Rain = 0
KKN1 130050Z 05007KT 01/M11 A303 RMK A01 T00131111  RH  040%=      5-min Rain = 0
KKN1 130055Z 05007KT 01/M11 A303 RMK A01 T00111111  RH  040%=      5-min Rain = 0
KKN1 130100Z 06007KT 01/M11 A303 RMK A01 T00101112  RH  040%=      5-min Rain = 0
KKN1 130105Z 06007KT 01/M11 A303 RMK A01 T00091112  RH  041%=      5-min Rain = 0
KKN1 130110Z 06006KT 01/M11 A3031 RMK A01 T00071111  RH  041%=      5-min Rain = 0
KKN1 130115Z 06005KT 01/M11 A303 RMK A01 T00061111  RH  042%=      5-min Rain = 0
KKN1 130120Z 06006KT 00/M11 A3031 RMK A01 T00041110  RH  043%=      5-min Rain = 0
KKN1 130125Z 06006KT 00/M11 A3031 RMK A01 T00031110  RH  043%=      5-min Rain = 0
KKN1 130130Z 06007KT 00/M11 A3031 RMK A01 T00031111  RH  043%=      5-min Rain = 0
KKN1 130135Z 06007KT 00/M11 A3031 RMK A01 T00041112  RH  042%=      5-min Rain = 0
KKN1 130140Z 06007KT 00/M11 A3031 RMK A01 T00031113  RH  042%=      5-min Rain = 0
KKN1 130145Z 06008KT 00/M11 A3032 RMK A01 T00031113  RH  042%=      5-min Rain = 0
KKN1 130150Z 06008KT 00/M11 A3032 RMK A01 T00031112  RH  042%=      5-min Rain = 0
KKN1 130155Z 06008KT 00/M11 A3033 RMK A01 T00021111  RH  043%=      5-min Rain = 0
KKN1 130200Z 05008KT 00/M11 A3033 RMK A01 T00011111  RH  043%=      5-min Rain = 0
KKN1 130205Z 05008KT 00/11 A3034 RMK A01 T00-00-111  RH  044%=      5-min Rain = 0
KKN1 130210Z 05008KT M00/M11 A3034 RMK A01 T10021111  RH  044%=      5-min Rain = 0
KKN1 130215Z 05008KT M00/M11 A3035 RMK A01 T10031110  RH  045%=      5-min Rain = 0
KKN1 130220Z 06008KT M00/M11 A3035 RMK A01 T10041110  RH  045%=      5-min Rain = 0
KKN1 130225Z 05008KT M01/M11 A3035 RMK A01 T10051109  RH  046%=      5-min Rain = 0
KKN1 130230Z 06007KT M01/M11 A3035 RMK A01 T10061108  RH  047%=      5-min Rain = 0
KKN1 130235Z 06007KT M01/M11 A3036 RMK A01 T10071108  RH  047%=      5-min Rain = 0
KKN1 130240Z 06007KT M01/M11 A3036 RMK A01 T10081109  RH  047%=      5-min Rain = 0
KKN1 130245Z 06007KT M01/M11 A3036 RMK A01 T10091108  RH  047%=      5-min Rain = 0
KKN1 130250Z 06006KT M01/M11 A3036 RMK A01 T10091108  RH  048%=      5-min Rain = 0
KKN1 130255Z 06006KT M01/M11 A3037 RMK A01 T10111108  RH  049%=      5-min Rain = 0
KKN1 130300Z 05007KT M01/M11 A3037 RMK A01 T10141108  RH  049%=      5-min Rain = 0
KKN1 130305Z 05006KT M02/M11 A3038 RMK A01 T10151109  RH  050%=      5-min Rain = 0
KKN1 130310Z 05006KT M02/M11 A3038 RMK A01 T10181109  RH  050%=      5-min Rain = 0
KKN1 130315Z 06005KT M02/M11 A3038 RMK A01 T10221109  RH  052%=      5-min Rain = 0
KKN1 130320Z 06005KT M02/M11 A3039 RMK A01 T10241108  RH  053%=      5-min Rain = 0
KKN1 130325Z 07005KT M02/M11 A3039 RMK A01 T10231107  RH  053%=      5-min Rain = 0
KKN1 130330Z 05005KT M02/M11 A3039 RMK A01 T10231107  RH  053%=      5-min Rain = 0
KKN1 130335Z 05005KT M03/M11 A304 RMK A01 T10261109  RH  054%=      5-min Rain = 0
KKN1 130340Z 06005KT M03/M11 A304 RMK A01 T10271108  RH  054%=      5-min Rain = 0
KKN1 130345Z 05006KT M03/M11 A304 RMK A01 T10291109  RH  055%=      5-min Rain = 0
KKN1 130350Z 05006KT M03/M11 A304 RMK A01 T10271108  RH  054%=      5-min Rain = 0
KKN1 130355Z 06006KT M03/M11 A304 RMK A01 T10261108  RH  054%=      5-min Rain = 0
KKN1 130400Z 05005KT M03/M11 A3041 RMK A01 T10271108  RH  054%=      5-min Rain = 0
KKN1 130405Z 05005KT M03/M11 A3041 RMK A01 T10271108  RH  054%=      5-min Rain = 0
KKN1 130410Z 04005KT M03/M11 A3041 RMK A01 T10291109  RH  055%=      5-min Rain = 0
KKN1 130415Z 04004KT M03/M11 A3042 RMK A01 T10311110  RH  055%=      5-min Rain = 0
KKN1 130420Z 04004KT M03/M11 A3042 RMK A01 T10341110  RH  056%=      5-min Rain = 0
KKN1 130425Z 04005KT M04/M11 A3042 RMK A01 T10381112  RH  057%=      5-min Rain = 0
KKN1 130430Z 04005KT M04/M11 A3043 RMK A01 T10391111  RH  058%=      5-min Rain = 0
KKN1 130435Z 06004KT M04/M11 A3042 RMK A01 T10351109  RH  057%=      5-min Rain = 0
KKN1 130440Z 08004KT M03/M11 A3042 RMK A01 T10331109  RH  057%=      5-min Rain = 0
KKN1 130445Z 08005KT M03/M11 A3042 RMK A01 T10331109  RH  057%=      5-min Rain = 0
KKN1 130450Z 08005KT M03/M11 A3043 RMK A01 T10321109  RH  056%=      5-min Rain = 0
KKN1 130455Z 07005KT M03/M11 A3043 RMK A01 T10301109  RH  055%=      5-min Rain = 0
KKN1 130500Z 07005KT M03/M11 A3043 RMK A01 T10301110  RH  055%=      5-min Rain = 0
KKN1 130505Z 04005KT M03/M11 A3044 RMK A01 T10331110  RH  056%=      5-min Rain = 0
KKN1 130510Z 04006KT M04/M11 A3044 RMK A01 T10371111  RH  057%=      5-min Rain = 0
KKN1 130515Z 03005KT M04/M11 A3045 RMK A01 T10391111  RH  058%=      5-min Rain = 0
KKN1 130520Z 03005KT M04/M11 A3045 RMK A01 T10371111  RH  057%=      5-min Rain = 0
KKN1 130525Z 03006KT M04/M11 A3045 RMK A01 T10361111  RH  057%=      5-min Rain = 0
KKN1 130530Z 03005KT M04/M11 A3045 RMK A01 T10361110  RH  057%=      5-min Rain = 0
KKN1 130535Z 02006KT M04/M11 A3046 RMK A01 T10361110  RH  058%=      5-min Rain = 0
KKN1 130540Z 02005KT M04/M11 A3046 RMK A01 T10361109  RH  058%=      5-min Rain = 0
KKN1 130545Z 02005KT M04/M11 A3046 RMK A01 T10361110  RH  057%=      5-min Rain = 0
KKN1 130550Z 36005KT M04/M11 A3047 RMK A01 T10421113  RH  059%=      5-min Rain = 0
KKN1 130555Z 35005KT M05/M12 A3047 RMK A01 T10481115  RH  060%=      5-min Rain = 0

Page generated in 0.0093 seconds.